Terminal Aerodrome Forecast
Issued by NWS Charleston, WV

Current Version | Previous Version | Graphics & Text | Print | Product List | Glossary On
Versions: 1 2 3 4 5 6 7 8 9 10 11 12 13 14 15 16 17 18 19 20 21
223
FTUS41 KRLX 210539
TAFPKB
TAF
KPKB 210539Z 2106/2206 02004KT 6SM -RA OVC100
     FM210900 02004KT 6SM -SHRA BR BKN040
     FM211200 02004KT P6SM BKN030
     FM211400 VRB03KT P6SM BKN035
     FM211700 33004KT P6SM BKN030
     FM212200 31006KT P6SM SCT025
     FM220500 00000KT P6SM SCT025=

USA.gov is the U.S. government's official web portal to all federal, state and local government web resources and services.